Time;durP1;ratioP1;P1;durP2;ratioP2;P2;SDS_P1;SDS_P2;PMS_P1;PMS_P2;Temp;Humidity;BMP_temperature;BMP_pressure;BME280_temperature;BME280_humidity;BME280_pressure;Samples;Min_cycle;Max_cycle;Signal;HPM_P1;HPM_P2
2022/12/02 00:00:21;;;;;;;;;;;2.00;99.90;;;;;;5041617;28;19908;-82
2022/12/02 00:02:47;;;;;;;;;;;2.00;99.90;;;;;;5058144;28;19919;-82
2022/12/02 00:05:13;;;;;;;;;;;2.00;99.90;;;;;;5039497;28;19913;-82
2022/12/02 00:07:38;;;;;;;;;;;2.00;99.90;;;;;;5058671;28;19916;-81
2022/12/02 00:10:21;;;;;;;;;;;2.00;99.90;;;;;;5067467;28;19924;-82
2022/12/02 00:12:47;;;;;;;;;;;2.00;99.90;;;;;;5060803;28;20602;-82
2022/12/02 00:15:30;;;;;;;;;;;2.00;99.90;;;;;;5027702;28;19923;-82
2022/12/02 00:17:56;;;;;;;;;;;2.00;99.90;;;;;;5064884;28;20360;-82
2022/12/02 00:20:21;;;;;;;;;;;2.00;99.90;;;;;;5044658;28;19999;-82
2022/12/02 00:22:47;;;;;;;;;;;2.00;99.90;;;;;;5044841;28;19952;-83
2022/12/02 00:25:14;;;;;;;;;;;2.00;99.90;;;;;;5043527;28;19959;-82
2022/12/02 00:27:40;;;;;;;;;;;2.00;99.90;;;;;;5056633;28;19955;-82
2022/12/02 00:30:05;;;;;;;;;;;2.00;99.90;;;;;;5047626;28;19913;-82
2022/12/02 00:32:31;;;;;;;;;;;1.90;99.90;;;;;;5051101;28;20406;-82
2022/12/02 00:34:56;;;;;;;;;;;1.90;99.90;;;;;;5043241;28;19978;-82
2022/12/02 00:37:22;;;;;;;;;;;1.90;99.90;;;;;;5066215;28;19913;-82
2022/12/02 00:39:48;;;;;;;;;;;1.90;99.90;;;;;;5037655;28;19913;-82
2022/12/02 00:42:13;;;;;;;;;;;1.90;99.90;;;;;;5055784;28;19912;-82
2022/12/02 00:47:23;;;;;;;;;;;1.90;99.90;;;;;;5055232;28;19920;-82
2022/12/02 00:49:48;;;;;;;;;;;1.90;99.90;;;;;;5055211;28;19917;-82
2022/12/02 00:52:14;;;;;;;;;;;1.90;99.90;;;;;;5056558;28;19956;-81
2022/12/02 00:54:39;;;;;;;;;;;1.90;99.90;;;;;;5064203;28;20277;-81
2022/12/02 00:57:05;;;;;;;;;;;1.90;99.90;;;;;;5044675;28;20288;-82
2022/12/02 00:59:31;;;;;;;;;;;1.90;99.90;;;;;;5064799;28;20304;-82
2022/12/02 01:01:56;;;;;;;;;;;1.80;99.90;;;;;;5028000;28;19923;-81
2022/12/02 01:04:22;;;;;;;;;;;1.80;99.90;;;;;;5064755;28;20349;-82
2022/12/02 01:06:48;;;;;;;;;;;1.80;99.90;;;;;;5045832;28;19955;-82
2022/12/02 01:09:13;;;;;;;;;;;1.80;99.90;;;;;;5063793;28;20372;-82
2022/12/02 01:11:39;;;;;;;;;;;1.80;99.90;;;;;;5063627;28;20399;-81
2022/12/02 01:14:04;;;;;;;;;;;1.70;99.90;;;;;;5037779;28;19913;-82
2022/12/02 01:16:30;;;;;;;;;;;1.70;99.90;;;;;;5050418;28;19913;-82
2022/12/02 01:18:55;;;;;;;;;;;1.70;99.90;;;;;;5047723;28;19947;-81
2022/12/02 01:21:22;;;;;;;;;;;1.70;99.90;;;;;;5068076;28;19928;-82
2022/12/02 01:23:47;;;;;;;;;;;1.70;99.90;;;;;;5062795;28;19912;-82
2022/12/02 01:26:13;;;;;;;;;;;1.70;99.90;;;;;;5064159;28;19919;-82
2022/12/02 01:28:38;;;;;;;;;;;1.70;99.90;;;;;;5046391;28;19913;-82
2022/12/02 01:31:04;;;;;;;;;;;1.80;99.90;;;;;;5043264;28;19913;-82
2022/12/02 01:33:30;;;;;;;;;;;1.70;99.90;;;;;;5054861;28;19917;-82
2022/12/02 01:35:55;;;;;;;;;;;1.70;99.90;;;;;;5037348;28;19913;-81
2022/12/02 01:38:21;;;;;;;;;;;1.70;99.90;;;;;;5054846;28;19920;-82
2022/12/02 01:40:46;;;;;;;;;;;1.70;99.90;;;;;;5059907;28;19908;-82
2022/12/02 01:43:12;;;;;;;;;;;1.70;99.90;;;;;;5061537;28;20368;-82
2022/12/02 01:45:37;;;;;;;;;;;1.70;99.90;;;;;;5062016;28;20433;-82
2022/12/02 01:48:03;;;;;;;;;;;1.70;99.90;;;;;;5068301;28;19916;-81
2022/12/02 01:50:29;;;;;;;;;;;1.70;99.90;;;;;;5090928;28;19912;-82
2022/12/02 01:52:55;;;;;;;;;;;1.70;99.90;;;;;;5080969;28;19915;-83
2022/12/02 01:55:22;;;;;;;;;;;1.60;99.90;;;;;;5056764;28;19912;-82
2022/12/02 01:57:47;;;;;;;;;;;1.60;99.90;;;;;;5047050;28;19924;-82
2022/12/02 02:00:14;;;;;;;;;;;1.60;99.90;;;;;;5065018;28;19914;-82
2022/12/02 02:02:39;;;;;;;;;;;1.60;99.90;;;;;;5047134;28;19909;-82
2022/12/02 02:05:16;;;;;;;;;;;1.60;99.90;;;;;;5067867;28;19918;-82
2022/12/02 02:07:42;;;;;;;;;;;1.60;99.90;;;;;;5034763;28;19921;-81
2022/12/02 02:10:08;;;;;;;;;;;1.60;99.90;;;;;;5034645;28;19909;-82
2022/12/02 02:12:34;;;;;;;;;;;1.50;99.90;;;;;;5017139;28;19952;-81
2022/12/02 02:15:04;;;;;;;;;;;1.50;99.90;;;;;;5016990;28;19913;-81
2022/12/02 02:17:30;;;;;;;;;;;1.50;99.90;;;;;;5016476;28;20361;-82
2022/12/02 02:19:55;;;;;;;;;;;1.50;99.90;;;;;;5016580;28;19909;-81
2022/12/02 02:22:47;;;;;;;;;;;1.50;99.90;;;;;;5016454;28;19909;-81
2022/12/02 02:25:15;;;;;;;;;;;1.40;99.90;;;;;;5020774;28;19916;-81
2022/12/02 02:27:49;;;;;;;;;;;1.40;99.90;;;;;;5036248;28;19909;-82
2022/12/02 02:30:14;;;;;;;;;;;1.40;99.90;;;;;;5054274;28;19909;-82
2022/12/02 02:32:40;;;;;;;;;;;1.40;99.90;;;;;;5053813;28;19912;-82
2022/12/02 02:35:06;;;;;;;;;;;1.40;99.90;;;;;;5036269;28;19924;-81
2022/12/02 02:37:31;;;;;;;;;;;1.40;99.90;;;;;;5054691;28;19931;-81
2022/12/02 02:39:57;;;;;;;;;;;1.30;99.90;;;;;;5036490;28;19916;-81
2022/12/02 02:42:23;;;;;;;;;;;1.20;99.90;;;;;;5053976;28;19959;-81
2022/12/02 02:44:48;;;;;;;;;;;1.20;99.90;;;;;;5053611;28;19916;-81
2022/12/02 02:47:14;;;;;;;;;;;1.10;99.90;;;;;;5035255;28;19909;-81
2022/12/02 02:49:40;;;;;;;;;;;1.00;99.90;;;;;;5035141;28;19913;-81
2022/12/02 02:52:05;;;;;;;;;;;0.90;99.90;;;;;;5053057;28;19967;-81
2022/12/02 02:54:31;;;;;;;;;;;0.90;99.90;;;;;;5035073;28;19916;-81
2022/12/02 02:56:56;;;;;;;;;;;0.80;99.90;;;;;;5035203;28;19979;-82
2022/12/02 02:59:22;;;;;;;;;;;0.70;99.90;;;;;;5055391;28;19913;-82
2022/12/02 03:01:48;;;;;;;;;;;0.80;99.90;;;;;;5039429;28;19924;-82
2022/12/02 03:04:16;;;;;;;;;;;0.80;99.90;;;;;;5019642;28;19917;-81
2022/12/02 03:06:44;;;;;;;;;;;0.80;99.90;;;;;;5019526;28;20440;-82
2022/12/02 03:09:11;;;;;;;;;;;0.90;99.90;;;;;;5019369;28;19972;-82
2022/12/02 03:11:37;;;;;;;;;;;0.90;99.90;;;;;;5037290;28;19956;-82
2022/12/02 03:14:04;;;;;;;;;;;1.00;99.90;;;;;;5037763;28;19913;-82
2022/12/02 03:16:29;;;;;;;;;;;1.00;99.90;;;;;;5019431;28;20277;-82
2022/12/02 03:18:56;;;;;;;;;;;1.00;99.90;;;;;;5035795;28;20001;-82
2022/12/02 03:21:22;;;;;;;;;;;1.10;99.90;;;;;;5019255;28;19975;-82
2022/12/02 03:23:49;;;;;;;;;;;1.10;99.90;;;;;;5035707;28;19917;-82
2022/12/02 03:26:15;;;;;;;;;;;1.10;99.90;;;;;;5029683;28;19916;-82
2022/12/02 03:28:41;;;;;;;;;;;1.20;99.90;;;;;;5056817;28;19909;-82
2022/12/02 03:31:08;;;;;;;;;;;1.20;99.90;;;;;;5056897;28;19919;-82
2022/12/02 03:33:33;;;;;;;;;;;1.20;99.90;;;;;;5038936;28;20011;-82
2022/12/02 03:35:59;;;;;;;;;;;1.20;99.90;;;;;;5021805;28;19956;-82
2022/12/02 03:38:25;;;;;;;;;;;1.20;99.90;;;;;;5018878;28;19913;-82
2022/12/02 03:40:51;;;;;;;;;;;1.20;99.90;;;;;;5018789;28;20034;-82
2022/12/02 03:43:17;;;;;;;;;;;1.20;99.90;;;;;;5036663;28;19952;-82
2022/12/02 03:45:42;;;;;;;;;;;1.20;99.90;;;;;;5035361;28;19979;-82
2022/12/02 03:48:08;;;;;;;;;;;1.20;99.90;;;;;;5037052;28;19919;-82
2022/12/02 03:50:34;;;;;;;;;;;1.30;99.90;;;;;;5063310;28;19959;-82
2022/12/02 03:53:00;;;;;;;;;;;1.20;99.90;;;;;;5050579;28;19913;-83
2022/12/02 03:55:25;;;;;;;;;;;1.30;99.90;;;;;;5068014;28;19913;-82
2022/12/02 03:57:51;;;;;;;;;;;1.30;99.90;;;;;;5040878;28;19913;-82
2022/12/02 04:00:16;;;;;;;;;;;1.30;99.90;;;;;;5058639;28;19916;-83
2022/12/02 04:02:42;;;;;;;;;;;1.30;99.90;;;;;;5024086;28;19920;-82
2022/12/02 04:05:08;;;;;;;;;;;1.30;99.90;;;;;;5039633;28;20265;-82
2022/12/02 04:07:33;;;;;;;;;;;1.30;99.90;;;;;;5022463;28;19916;-82
2022/12/02 04:09:59;;;;;;;;;;;1.30;99.90;;;;;;5038418;28;20008;-82
2022/12/02 04:12:24;;;;;;;;;;;1.30;99.90;;;;;;5056312;28;19952;-82
2022/12/02 04:14:50;;;;;;;;;;;1.30;99.90;;;;;;5021618;28;19917;-81
2022/12/02 04:17:15;;;;;;;;;;;1.30;99.90;;;;;;5037962;28;19917;-82
2022/12/02 04:19:41;;;;;;;;;;;1.30;99.90;;;;;;5055322;28;19913;-82
2022/12/02 04:22:06;;;;;;;;;;;1.30;99.90;;;;;;5038081;28;19913;-81
2022/12/02 04:24:32;;;;;;;;;;;1.30;99.90;;;;;;5055509;28;19948;-81
2022/12/02 04:26:57;;;;;;;;;;;1.30;99.90;;;;;;5055472;28;19917;-81
2022/12/02 04:29:23;;;;;;;;;;;1.30;99.90;;;;;;5055473;28;20327;-82
2022/12/02 04:31:48;;;;;;;;;;;1.30;99.90;;;;;;5046468;28;20383;-82
2022/12/02 04:34:14;;;;;;;;;;;1.30;99.90;;;;;;5043526;28;19917;-81
2022/12/02 04:36:39;;;;;;;;;;;1.30;99.90;;;;;;5076807;28;19975;-82
2022/12/02 04:39:05;;;;;;;;;;;1.30;99.90;;;;;;5044963;28;19964;-82
2022/12/02 04:41:31;;;;;;;;;;;1.30;99.90;;;;;;5041712;28;19909;-84
2022/12/02 04:43:56;;;;;;;;;;;1.30;99.90;;;;;;5036768;28;19920;-84
2022/12/02 04:46:22;;;;;;;;;;;1.30;99.90;;;;;;5037141;28;19909;-83
2022/12/02 04:48:47;;;;;;;;;;;1.30;99.90;;;;;;5057614;28;19944;-82
2022/12/02 04:51:13;;;;;;;;;;;1.30;99.90;;;;;;5076051;28;19983;-83
2022/12/02 04:53:38;;;;;;;;;;;1.30;99.90;;;;;;5046450;28;19932;-82
2022/12/02 04:56:04;;;;;;;;;;;1.20;99.90;;;;;;5067382;28;19916;-82
2022/12/02 04:58:30;;;;;;;;;;;1.20;99.90;;;;;;5065918;28;19908;-84
2022/12/02 05:00:55;;;;;;;;;;;1.20;99.90;;;;;;5048230;28;19935;-83
2022/12/02 05:03:21;;;;;;;;;;;1.20;99.90;;;;;;5020429;28;20348;-83
2022/12/02 05:05:46;;;;;;;;;;;1.10;99.90;;;;;;5053041;28;19912;-83
2022/12/02 05:08:12;;;;;;;;;;;1.10;99.90;;;;;;5057197;28;19984;-82
2022/12/02 05:10:37;;;;;;;;;;;1.10;99.90;;;;;;5066635;28;19992;-83
2022/12/02 05:13:03;;;;;;;;;;;1.10;99.90;;;;;;5065007;28;19959;-83
2022/12/02 05:15:28;;;;;;;;;;;1.20;99.90;;;;;;5048181;28;19966;-82
2022/12/02 05:17:54;;;;;;;;;;;1.20;99.90;;;;;;5048751;28;19971;-83
2022/12/02 05:20:20;;;;;;;;;;;1.10;99.90;;;;;;5043351;28;20262;-84
2022/12/02 05:22:45;;;;;;;;;;;1.10;99.90;;;;;;5039911;28;19995;-82
2022/12/02 05:25:11;;;;;;;;;;;1.10;99.90;;;;;;5054174;28;19909;-82
2022/12/02 05:27:36;;;;;;;;;;;1.10;99.90;;;;;;5054135;28;19913;-83
2022/12/02 05:30:06;;;;;;;;;;;1.20;99.90;;;;;;5059151;28;19916;-82
2022/12/02 05:32:32;;;;;;;;;;;1.20;99.90;;;;;;5046966;28;20388;-82
2022/12/02 05:34:57;;;;;;;;;;;1.20;99.90;;;;;;5057743;28;20015;-82
2022/12/02 05:37:23;;;;;;;;;;;1.20;99.90;;;;;;5039305;28;19912;-81
2022/12/02 05:39:48;;;;;;;;;;;1.20;99.90;;;;;;5075696;28;20015;-81
2022/12/02 05:42:14;;;;;;;;;;;1.30;99.90;;;;;;5075066;28;19913;-81
2022/12/02 05:44:41;;;;;;;;;;;1.30;99.90;;;;;;5076414;28;19909;-80
2022/12/02 05:47:14;;;;;;;;;;;1.30;99.90;;;;;;5058035;28;19913;-80
2022/12/02 05:49:41;;;;;;;;;;;1.30;99.90;;;;;;5075934;28;19908;-80
2022/12/02 05:52:33;;;;;;;;;;;1.30;99.90;;;;;;5076210;28;19915;-80
2022/12/02 05:55:00;;;;;;;;;;;1.20;99.90;;;;;;5071558;28;19966;-80
2022/12/02 05:57:27;;;;;;;;;;;1.20;99.90;;;;;;5057215;28;20008;-80
2022/12/02 06:00:07;;;;;;;;;;;1.20;99.90;;;;;;5038071;28;19909;-80
2022/12/02 06:02:37;;;;;;;;;;;1.20;99.90;;;;;;5056043;28;19995;-80
2022/12/02 06:05:29;;;;;;;;;;;1.20;99.90;;;;;;5055335;28;19909;-80
2022/12/02 06:08:00;;;;;;;;;;;1.20;99.90;;;;;;5053488;28;19944;-80
2022/12/02 06:10:30;;;;;;;;;;;1.20;99.90;;;;;;5055580;28;20000;-79
2022/12/02 06:12:59;;;;;;;;;;;1.30;99.90;;;;;;5037965;28;19916;-80
2022/12/02 06:15:28;;;;;;;;;;;1.30;99.90;;;;;;5055676;28;19913;-79
2022/12/02 06:17:54;;;;;;;;;;;1.20;99.90;;;;;;5055459;28;19967;-80
2022/12/02 06:20:29;;;;;;;;;;;1.30;99.90;;;;;;5056103;28;20308;-80
2022/12/02 06:22:55;;;;;;;;;;;1.30;99.90;;;;;;5056645;28;20004;-79
2022/12/02 06:25:30;;;;;;;;;;;1.30;99.90;;;;;;5055626;28;19952;-80
2022/12/02 06:28:00;;;;;;;;;;;1.30;99.90;;;;;;5056462;28;19909;-80
2022/12/02 06:30:26;;;;;;;;;;;1.30;99.90;;;;;;5038873;28;19916;-80
2022/12/02 06:32:54;;;;;;;;;;;1.30;99.90;;;;;;5056526;28;19920;-81
2022/12/02 06:35:27;;;;;;;;;;;1.30;99.90;;;;;;5059801;28;20358;-80
2022/12/02 06:37:54;;;;;;;;;;;1.30;99.90;;;;;;5042502;28;19945;-80
2022/12/02 06:40:24;;;;;;;;;;;1.30;99.90;;;;;;5060242;28;19915;-80
2022/12/02 06:42:50;;;;;;;;;;;1.30;99.90;;;;;;5060806;28;19909;-80
2022/12/02 06:45:20;;;;;;;;;;;1.30;99.90;;;;;;5060426;28;20011;-80
2022/12/02 06:47:48;;;;;;;;;;;1.30;99.90;;;;;;5059360;28;19909;-80
2022/12/02 06:50:28;;;;;;;;;;;1.30;99.90;;;;;;5059298;28;19917;-80
2022/12/02 06:53:06;;;;;;;;;;;1.30;99.90;;;;;;5060201;28;19958;-80
2022/12/02 06:55:35;;;;;;;;;;;1.30;99.90;;;;;;5041674;28;19955;-80
2022/12/02 06:58:27;;;;;;;;;;;1.30;99.90;;;;;;5044986;28;19908;-79
2022/12/02 07:00:53;;;;;;;;;;;1.30;99.90;;;;;;5057221;28;20373;-80
2022/12/02 07:03:32;;;;;;;;;;;1.30;99.90;;;;;;5024606;28;19920;-79
2022/12/02 07:06:08;;;;;;;;;;;1.40;99.90;;;;;;5059063;28;19920;-80
2022/12/02 07:08:33;;;;;;;;;;;1.30;99.90;;;;;;5058691;28;19917;-80
2022/12/02 07:10:59;;;;;;;;;;;1.40;99.90;;;;;;5059275;28;19916;-80
2022/12/02 07:13:25;;;;;;;;;;;1.40;99.90;;;;;;5059403;28;19919;-80
2022/12/02 07:15:51;;;;;;;;;;;1.40;99.90;;;;;;5058506;28;19908;-80
2022/12/02 07:18:18;;;;;;;;;;;1.30;99.90;;;;;;5059000;28;20380;-80
2022/12/02 07:20:44;;;;;;;;;;;1.40;99.90;;;;;;5060456;28;20354;-80
2022/12/02 07:23:13;;;;;;;;;;;1.30;99.90;;;;;;5067027;28;20400;-80
2022/12/02 07:25:38;;;;;;;;;;;1.30;99.90;;;;;;5068141;28;19912;-79
2022/12/02 07:28:19;;;;;;;;;;;1.40;99.90;;;;;;5051976;28;20437;-80
2022/12/02 07:30:49;;;;;;;;;;;1.40;99.90;;;;;;5065992;28;20009;-80
2022/12/02 07:33:14;;;;;;;;;;;1.40;99.90;;;;;;5066047;28;19909;-81
2022/12/02 07:35:40;;;;;;;;;;;1.40;99.90;;;;;;5051655;28;19924;-80
2022/12/02 07:38:06;;;;;;;;;;;1.40;99.90;;;;;;5065121;28;19991;-80
2022/12/02 07:40:31;;;;;;;;;;;1.40;99.90;;;;;;5046207;28;19955;-80
2022/12/02 07:42:57;;;;;;;;;;;1.40;99.90;;;;;;5049879;28;19946;-80
2022/12/02 07:45:22;;;;;;;;;;;1.40;99.90;;;;;;5066467;28;19920;-81
2022/12/02 07:47:48;;;;;;;;;;;1.40;99.90;;;;;;5049502;28;20412;-80
2022/12/02 07:50:14;;;;;;;;;;;1.40;99.90;;;;;;5066227;28;19909;-80
2022/12/02 07:52:40;;;;;;;;;;;1.40;99.90;;;;;;5064633;28;19908;-80
2022/12/02 07:55:06;;;;;;;;;;;1.40;99.90;;;;;;5051339;28;19966;-80
2022/12/02 07:57:33;;;;;;;;;;;1.40;99.90;;;;;;5062869;28;19920;-80
2022/12/02 07:59:58;;;;;;;;;;;1.40;99.90;;;;;;5048555;28;19952;-80
2022/12/02 08:02:24;;;;;;;;;;;1.40;99.90;;;;;;5064391;28;19920;-80
2022/12/02 08:04:49;;;;;;;;;;;1.40;99.90;;;;;;5039638;28;19913;-80
2022/12/02 08:07:15;;;;;;;;;;;1.40;99.90;;;;;;5040354;28;19924;-80
2022/12/02 08:09:40;;;;;;;;;;;1.40;99.90;;;;;;5066633;28;19921;-80
2022/12/02 08:12:06;;;;;;;;;;;1.40;99.90;;;;;;5043268;28;19913;-80
2022/12/02 08:14:31;;;;;;;;;;;1.40;99.90;;;;;;5048943;28;20012;-80
2022/12/02 08:16:57;;;;;;;;;;;1.40;99.90;;;;;;5023960;28;19920;-79
2022/12/02 08:19:22;;;;;;;;;;;1.40;99.90;;;;;;5067516;28;19936;-80
2022/12/02 08:21:48;;;;;;;;;;;1.40;99.90;;;;;;5041441;28;19935;-79
2022/12/02 08:24:14;;;;;;;;;;;1.50;99.90;;;;;;5068641;28;19912;-80
2022/12/02 08:26:39;;;;;;;;;;;1.40;99.90;;;;;;5063699;28;20361;-79
2022/12/02 08:29:05;;;;;;;;;;;1.40;99.90;;;;;;5049709;28;19919;-80
2022/12/02 08:31:30;;;;;;;;;;;1.50;99.90;;;;;;5078508;28;19917;-80
2022/12/02 08:33:56;;;;;;;;;;;1.40;99.90;;;;;;5077931;28;19923;-79
2022/12/02 08:36:21;;;;;;;;;;;1.40;99.90;;;;;;5078143;28;19919;-80
2022/12/02 08:38:47;;;;;;;;;;;1.40;99.90;;;;;;5052099;28;20388;-79
2022/12/02 08:41:13;;;;;;;;;;;1.40;99.90;;;;;;5066318;28;19971;-79
2022/12/02 08:43:39;;;;;;;;;;;1.40;99.90;;;;;;5062684;28;20301;-80
2022/12/02 08:46:05;;;;;;;;;;;1.40;99.90;;;;;;5073942;28;20003;-80
2022/12/02 08:48:30;;;;;;;;;;;1.40;99.90;;;;;;5058804;28;19908;-80
2022/12/02 08:50:56;;;;;;;;;;;1.40;99.90;;;;;;5060319;28;20327;-80
2022/12/02 08:53:22;;;;;;;;;;;1.40;99.90;;;;;;5058439;28;19940;-80
2022/12/02 08:55:47;;;;;;;;;;;1.40;99.90;;;;;;5061774;28;19923;-80
2022/12/02 08:58:13;;;;;;;;;;;1.40;99.90;;;;;;5063897;28;19909;-82
2022/12/02 09:00:41;;;;;;;;;;;1.40;99.90;;;;;;5067409;28;19931;-82
2022/12/02 09:03:07;;;;;;;;;;;1.50;99.90;;;;;;5035407;28;20014;-82
2022/12/02 09:05:34;;;;;;;;;;;1.40;99.90;;;;;;5060618;28;19912;-82
2022/12/02 09:07:59;;;;;;;;;;;1.40;99.90;;;;;;5021948;28;19921;-82
2022/12/02 09:10:25;;;;;;;;;;;1.40;99.90;;;;;;5038424;28;19913;-83
2022/12/02 09:12:52;;;;;;;;;;;1.40;99.90;;;;;;5041201;28;19909;-83
2022/12/02 09:15:19;;;;;;;;;;;1.30;99.90;;;;;;5041275;28;20355;-82
2022/12/02 09:17:45;;;;;;;;;;;1.40;99.90;;;;;;5040641;28;20362;-83
2022/12/02 09:20:11;;;;;;;;;;;1.30;99.90;;;;;;5059272;28;19908;-82
2022/12/02 09:22:36;;;;;;;;;;;1.40;99.90;;;;;;5058874;28;20341;-82
2022/12/02 09:25:02;;;;;;;;;;;1.40;99.90;;;;;;5036345;28;19953;-82
2022/12/02 09:27:29;;;;;;;;;;;1.40;99.90;;;;;;5033145;28;19949;-82
2022/12/02 09:29:54;;;;;;;;;;;1.40;99.90;;;;;;5055641;28;19912;-83
2022/12/02 09:32:20;;;;;;;;;;;1.40;99.90;;;;;;5066239;28;19912;-81
2022/12/02 09:34:45;;;;;;;;;;;1.50;99.90;;;;;;5072120;28;19920;-83
2022/12/02 09:37:11;;;;;;;;;;;1.50;99.90;;;;;;5048477;28;19999;-82
2022/12/02 09:39:36;;;;;;;;;;;1.50;99.90;;;;;;5067439;28;19984;-82
2022/12/02 09:42:02;;;;;;;;;;;1.60;99.90;;;;;;5051963;28;20330;-82
2022/12/02 09:44:28;;;;;;;;;;;1.60;99.90;;;;;;5075808;28;19916;-83
2022/12/02 09:46:53;;;;;;;;;;;1.70;99.90;;;;;;5070662;28;19913;-83
2022/12/02 09:49:19;;;;;;;;;;;1.70;99.90;;;;;;5052527;28;19962;-82
2022/12/02 09:51:44;;;;;;;;;;;1.70;99.90;;;;;;5077703;28;19974;-82
2022/12/02 09:54:13;;;;;;;;;;;1.80;99.90;;;;;;5060631;28;19916;-83
2022/12/02 09:56:40;;;;;;;;;;;1.80;99.90;;;;;;5040058;28;19908;-82
2022/12/02 09:59:10;;;;;;;;;;;1.90;99.90;;;;;;5039444;28;19920;-83
2022/12/02 10:01:36;;;;;;;;;;;1.90;99.90;;;;;;5044936;28;19909;-81
2022/12/02 10:04:02;;;;;;;;;;;2.00;99.90;;;;;;5021682;28;19956;-82
2022/12/02 10:06:28;;;;;;;;;;;2.00;99.90;;;;;;5038794;28;19943;-82
2022/12/02 10:08:55;;;;;;;;;;;2.00;99.90;;;;;;5021819;28;19920;-82
2022/12/02 10:11:26;;;;;;;;;;;2.10;99.90;;;;;;5044473;28;19916;-82
2022/12/02 10:13:52;;;;;;;;;;;2.10;99.90;;;;;;5070286;28;19920;-81
2022/12/02 10:16:17;;;;;;;;;;;2.10;99.90;;;;;;5064843;28;19913;-83
2022/12/02 10:18:44;;;;;;;;;;;2.10;99.90;;;;;;5066713;28;19912;-82
2022/12/02 10:21:09;;;;;;;;;;;2.10;99.90;;;;;;5080824;28;19913;-82
2022/12/02 10:23:50;;;;;;;;;;;2.10;99.90;;;;;;5054015;28;19995;-82
2022/12/02 10:26:16;;;;;;;;;;;2.10;99.90;;;;;;5068752;28;19909;-82
2022/12/02 10:28:41;;;;;;;;;;;2.20;99.90;;;;;;5045304;28;19913;-81
2022/12/02 10:31:09;;;;;;;;;;;2.20;99.90;;;;;;5060345;28;19913;-82
2022/12/02 10:33:36;;;;;;;;;;;2.20;99.90;;;;;;5022354;28;19916;-82
2022/12/02 10:36:02;;;;;;;;;;;2.20;99.90;;;;;;5041761;28;19915;-82
2022/12/02 10:38:29;;;;;;;;;;;2.20;99.90;;;;;;5043525;28;19913;-83
2022/12/02 10:41:11;;;;;;;;;;;2.20;99.90;;;;;;5069061;28;19966;-82
2022/12/02 10:43:37;;;;;;;;;;;2.30;99.90;;;;;;5045841;28;19943;-83
2022/12/02 10:46:02;;;;;;;;;;;2.30;99.90;;;;;;5075330;28;20280;-81
2022/12/02 10:48:28;;;;;;;;;;;2.30;99.90;;;;;;5062380;28;19924;-82
2022/12/02 10:50:54;;;;;;;;;;;2.40;99.90;;;;;;5064293;28;19923;-82
2022/12/02 10:53:21;;;;;;;;;;;2.40;99.90;;;;;;5061491;28;20011;-82
2022/12/02 10:55:47;;;;;;;;;;;2.40;99.90;;;;;;5061256;28;20008;-82
2022/12/02 10:58:14;;;;;;;;;;;2.40;99.90;;;;;;5022824;28;20023;-82
2022/12/02 11:00:40;;;;;;;;;;;2.40;99.90;;;;;;5040933;28;19917;-82
2022/12/02 11:03:06;;;;;;;;;;;2.50;99.90;;;;;;5075222;28;20018;-81
2022/12/02 11:05:34;;;;;;;;;;;2.50;99.90;;;;;;5076405;28;19948;-81
2022/12/02 11:08:19;;;;;;;;;;;2.50;99.90;;;;;;5077292;28;19989;-82
2022/12/02 11:10:45;;;;;;;;;;;2.50;99.90;;;;;;5059092;28;19915;-81
2022/12/02 11:13:11;;;;;;;;;;;2.50;99.90;;;;;;5059201;28;19954;-82
2022/12/02 11:15:49;;;;;;;;;;;2.60;99.90;;;;;;5076923;28;20330;-82
2022/12/02 11:18:24;;;;;;;;;;;2.60;99.90;;;;;;5059161;28;19953;-81
2022/12/02 11:20:53;;;;;;;;;;;2.60;99.90;;;;;;5065164;28;19908;-82
2022/12/02 11:23:20;;;;;;;;;;;2.60;99.90;;;;;;5043573;28;19952;-82
2022/12/02 11:25:49;;;;;;;;;;;2.60;99.90;;;;;;5062630;28;19915;-81
2022/12/02 11:28:18;;;;;;;;;;;2.70;99.90;;;;;;5038776;28;20016;-82
2022/12/02 11:30:46;;;;;;;;;;;2.70;99.90;;;;;;5057038;28;19909;-82
2022/12/02 11:33:13;;;;;;;;;;;2.70;99.90;;;;;;5056864;28;20276;-82
2022/12/02 11:35:57;;;;;;;;;;;2.70;99.90;;;;;;5056456;28;19999;-82
2022/12/02 11:38:24;;;;;;;;;;;2.70;99.90;;;;;;5040074;28;19918;-81
2022/12/02 11:40:58;;;;;;;;;;;2.70;99.90;;;;;;5068897;28;19920;-82
2022/12/02 11:43:40;;;;;;;;;;;2.70;99.90;;;;;;5044359;28;20003;-82
2022/12/02 11:46:05;;;;;;;;;;;2.70;99.90;;;;;;5058184;28;19915;-83
2022/12/02 11:48:31;;;;;;;;;;;2.70;99.90;;;;;;5076929;28;19909;-81
2022/12/02 11:50:56;;;;;;;;;;;2.80;99.90;;;;;;5058542;28;19986;-82
2022/12/02 11:53:23;;;;;;;;;;;2.80;99.90;;;;;;5042414;28;19912;-81
2022/12/02 11:55:52;;;;;;;;;;;2.80;99.90;;;;;;5046466;28;19923;-82
2022/12/02 11:58:20;;;;;;;;;;;2.80;99.90;;;;;;5056175;28;19913;-81
2022/12/02 12:01:06;;;;;;;;;;;2.90;99.90;;;;;;5056457;28;19921;-82
2022/12/02 12:03:32;;;;;;;;;;;2.80;99.90;;;;;;5058471;28;19908;-81
2022/12/02 12:06:12;;;;;;;;;;;2.90;99.90;;;;;;5061881;28;19940;-81
2022/12/02 12:08:39;;;;;;;;;;;2.90;99.90;;;;;;5063432;28;19921;-82
2022/12/02 12:11:24;;;;;;;;;;;3.00;99.90;;;;;;5063757;28;19963;-81
2022/12/02 12:14:02;;;;;;;;;;;3.10;99.90;;;;;;5045718;28;20000;-81
2022/12/02 12:16:31;;;;;;;;;;;3.20;99.90;;;;;;5018348;28;19909;-81
2022/12/02 12:19:18;;;;;;;;;;;3.40;99.90;;;;;;5036725;28;19921;-82
2022/12/02 12:21:46;;;;;;;;;;;3.50;99.90;;;;;;5045515;28;19963;-81
2022/12/02 12:24:22;;;;;;;;;;;3.60;99.90;;;;;;5054571;28;19913;-81
2022/12/02 12:26:59;;;;;;;;;;;3.80;99.90;;;;;;5055107;28;19913;-82
2022/12/02 12:29:27;;;;;;;;;;;3.90;99.90;;;;;;5055448;28;19962;-80
2022/12/02 12:31:52;;;;;;;;;;;4.10;99.90;;;;;;5054234;28;19944;-81
2022/12/02 12:34:18;;;;;;;;;;;4.20;99.90;;;;;;5059803;28;20042;-81
2022/12/02 12:36:44;;;;;;;;;;;4.40;99.90;;;;;;5062497;28;20570;-82
2022/12/02 12:39:10;;;;;;;;;;;4.50;99.90;;;;;;5034296;28;19920;-81
2022/12/02 12:41:36;;;;;;;;;;;4.60;99.90;;;;;;5056083;28;19908;-81
2022/12/02 12:44:02;;;;;;;;;;;4.70;99.90;;;;;;5055561;28;19915;-82
2022/12/02 12:46:27;;;;;;;;;;;4.80;99.90;;;;;;5055457;28;19913;-81
2022/12/02 12:48:53;;;;;;;;;;;4.90;99.90;;;;;;5020970;28;19912;-81
2022/12/02 12:51:18;;;;;;;;;;;5.00;99.90;;;;;;5056867;28;19913;-82
2022/12/02 12:53:44;;;;;;;;;;;5.00;99.90;;;;;;5038343;28;19916;-81
2022/12/02 12:56:09;;;;;;;;;;;5.00;99.90;;;;;;5054824;28;19920;-82
2022/12/02 12:58:35;;;;;;;;;;;5.00;99.90;;;;;;5049587;28;19919;-82
2022/12/02 13:01:01;;;;;;;;;;;5.00;99.90;;;;;;5037168;28;19952;-82
2022/12/02 13:03:26;;;;;;;;;;;5.00;99.90;;;;;;5059229;28;19912;-82
2022/12/02 13:05:52;;;;;;;;;;;5.00;99.90;;;;;;5065767;28;19924;-81
2022/12/02 13:08:17;;;;;;;;;;;4.90;99.90;;;;;;5064718;28;19929;-81
2022/12/02 13:10:43;;;;;;;;;;;4.90;99.90;;;;;;5055299;28;19913;-81
2022/12/02 13:13:08;;;;;;;;;;;4.90;99.90;;;;;;5045930;28;19998;-83
2022/12/02 13:15:34;;;;;;;;;;;4.80;99.90;;;;;;5043307;28;20380;-83
2022/12/02 13:17:59;;;;;;;;;;;4.80;99.90;;;;;;5056756;28;19908;-84
2022/12/02 13:20:25;;;;;;;;;;;4.80;99.90;;;;;;5040310;28;20406;-82
2022/12/02 13:22:51;;;;;;;;;;;4.80;99.90;;;;;;5075119;28;19916;-82
2022/12/02 13:25:16;;;;;;;;;;;4.70;99.90;;;;;;5044320;28;19921;-82
2022/12/02 13:27:42;;;;;;;;;;;4.70;99.90;;;;;;5060775;28;19913;-81
2022/12/02 13:30:10;;;;;;;;;;;4.70;99.90;;;;;;5065879;28;19919;-82
2022/12/02 13:32:36;;;;;;;;;;;4.70;99.90;;;;;;5059860;28;19909;-83
2022/12/02 13:35:02;;;;;;;;;;;4.60;99.90;;;;;;5046313;28;19927;-81
2022/12/02 13:37:27;;;;;;;;;;;4.60;99.90;;;;;;5044413;28;19913;-82
2022/12/02 13:39:53;;;;;;;;;;;4.60;99.90;;;;;;5067059;28;19935;-81
2022/12/02 13:42:18;;;;;;;;;;;4.60;99.90;;;;;;5040095;28;19909;-81
2022/12/02 13:44:44;;;;;;;;;;;4.50;99.90;;;;;;5020467;28;19982;-82
2022/12/02 13:47:10;;;;;;;;;;;4.50;99.90;;;;;;5037120;28;19925;-82
2022/12/02 13:49:35;;;;;;;;;;;4.50;99.90;;;;;;5037296;28;19913;-81
2022/12/02 13:52:01;;;;;;;;;;;4.50;99.90;;;;;;5055397;28;20001;-82
2022/12/02 13:54:27;;;;;;;;;;;4.50;99.90;;;;;;5036846;28;19920;-81
2022/12/02 13:56:52;;;;;;;;;;;4.50;99.90;;;;;;5057740;28;19909;-82
2022/12/02 13:59:18;;;;;;;;;;;4.50;99.90;;;;;;5060165;28;21320;-82
2022/12/02 14:01:43;;;;;;;;;;;4.50;99.90;;;;;;5060320;28;19912;-81
2022/12/02 14:04:09;;;;;;;;;;;4.40;99.90;;;;;;5042944;28;19924;-82
2022/12/02 14:06:34;;;;;;;;;;;4.40;99.90;;;;;;5052404;28;20294;-82
2022/12/02 14:09:00;;;;;;;;;;;4.40;99.90;;;;;;5027076;28;20031;-82
2022/12/02 14:11:26;;;;;;;;;;;4.30;99.90;;;;;;5040982;28;20345;-81
2022/12/02 14:13:52;;;;;;;;;;;4.20;99.90;;;;;;5035629;28;19963;-81
2022/12/02 14:16:18;;;;;;;;;;;4.10;99.90;;;;;;5054087;28;19924;-82
2022/12/02 14:18:44;;;;;;;;;;;4.10;99.90;;;;;;5036817;28;19913;-82
2022/12/02 14:21:09;;;;;;;;;;;4.00;99.90;;;;;;5036421;28;19920;-83
2022/12/02 14:23:35;;;;;;;;;;;4.00;99.90;;;;;;5040800;28;20293;-81
2022/12/02 14:26:00;;;;;;;;;;;3.90;99.90;;;;;;5056278;28;19944;-82
2022/12/02 14:28:26;;;;;;;;;;;3.90;99.90;;;;;;5035105;28;19917;-81
2022/12/02 14:30:52;;;;;;;;;;;3.90;99.90;;;;;;5042350;28;19927;-82
2022/12/02 14:33:17;;;;;;;;;;;3.90;99.90;;;;;;5059313;28;20648;-82